Time;durP1;ratioP1;P1;durP2;ratioP2;P2;SDS_P1;SDS_P2;PMS_P1;PMS_P2;Temp;Humidity;BMP_temperature;BMP_pressure;BME280_temperature;BME280_humidity;BME280_pressure;Samples;Min_cycle;Max_cycle;Signal;HPM_P1;HPM_P2
2021/07/06 00:00:22;;;;;;;5.23;1.57;;;11.10;99.90;;;;;;5074489;28;20258;-69
2021/07/06 00:02:51;;;;;;;11.87;1.50;;;11.20;99.90;;;;;;5074948;28;20668;-74
2021/07/06 00:05:19;;;;;;;4.17;1.03;;;11.30;99.90;;;;;;5074746;28;20253;-72
2021/07/06 00:07:47;;;;;;;2.67;1.20;;;11.30;99.90;;;;;;5075115;28;20175;-71
2021/07/06 00:10:17;;;;;;;4.30;1.87;;;11.20;99.90;;;;;;5077109;28;20181;-69
2021/07/06 00:12:44;;;;;;;6.40;1.60;;;11.30;99.90;;;;;;5066095;28;20193;-68
2021/07/06 00:15:14;;;;;;;1.37;1.20;;;11.40;99.90;;;;;;5053685;28;20171;-70
2021/07/06 00:17:42;;;;;;;1.67;1.10;;;11.50;99.90;;;;;;5070082;28;20653;-67
2021/07/06 00:20:12;;;;;;;2.83;1.27;;;11.50;99.90;;;;;;5072119;28;20190;-69
2021/07/06 00:22:41;;;;;;;2.63;1.10;;;11.60;99.90;;;;;;5075979;28;20583;-72
2021/07/06 00:25:09;;;;;;;2.47;1.20;;;11.60;99.90;;;;;;5076134;28;20274;-73
2021/07/06 00:27:38;;;;;;;4.33;1.13;;;11.60;99.90;;;;;;5074509;28;20229;-69
2021/07/06 00:30:07;;;;;;;2.47;1.20;;;11.70;99.90;;;;;;5086025;28;20257;-69
2021/07/06 00:32:35;;;;;;;4.27;1.20;;;11.80;99.90;;;;;;5076820;28;20175;-71
2021/07/06 00:35:03;;;;;;;2.33;1.50;;;11.90;99.90;;;;;;5074443;28;20241;-68
2021/07/06 00:37:31;;;;;;;3.10;1.40;;;11.90;99.90;;;;;;5078941;28;20170;-70
2021/07/06 00:40:00;;;;;;;4.20;1.33;;;12.10;99.90;;;;;;5086383;28;20219;-68
2021/07/06 00:42:27;;;;;;;3.90;1.43;;;12.40;99.90;;;;;;5091053;28;20206;-78
2021/07/06 00:44:55;;;;;;;8.57;1.47;;;12.50;99.90;;;;;;5087086;28;20206;-69
2021/07/06 00:47:36;;;;;;;4.67;1.40;;;12.50;99.90;;;;;;5078004;28;20239;-75
2021/07/06 00:50:21;;;;;;;2.37;1.03;;;12.60;99.90;;;;;;5082604;28;20271;-68
2021/07/06 00:52:51;;;;;;;4.50;1.07;;;12.70;99.90;;;;;;5072130;28;20178;-68
2021/07/06 00:55:19;;;;;;;2.20;1.00;;;12.80;99.90;;;;;;5072260;28;20274;-67
2021/07/06 00:57:46;;;;;;;3.20;1.00;;;12.80;99.90;;;;;;5065100;28;20179;-68
2021/07/06 01:00:19;;;;;;;2.07;1.40;;;12.80;99.90;;;;;;5093443;28;20174;-71
2021/07/06 01:02:47;;;;;;;2.10;1.10;;;13.00;99.90;;;;;;5083922;28;20259;-68
2021/07/06 01:05:17;;;;;;;1.57;0.90;;;13.10;99.90;;;;;;5069817;28;20175;-68
2021/07/06 01:07:45;;;;;;;3.70;1.20;;;13.30;99.90;;;;;;5072205;28;20210;-68
2021/07/06 01:10:14;;;;;;;4.00;1.30;;;13.30;99.80;;;;;;5081914;28;20175;-71
2021/07/06 01:12:43;;;;;;;2.57;1.60;;;13.50;99.40;;;;;;5089353;28;20171;-71
2021/07/06 01:15:14;;;;;;;3.97;1.30;;;13.60;99.40;;;;;;5077478;28;20259;-68
2021/07/06 01:17:44;;;;;;;3.50;1.17;;;13.70;99.00;;;;;;5064955;28;20637;-69
2021/07/06 01:20:15;;;;;;;2.37;0.93;;;13.80;99.00;;;;;;5075769;28;20211;-69
2021/07/06 01:22:44;;;;;;;2.83;1.20;;;13.90;99.10;;;;;;5073356;28;20227;-67
2021/07/06 01:25:13;;;;;;;4.53;0.90;;;14.10;98.40;;;;;;5069504;28;20183;-68
2021/07/06 01:27:41;;;;;;;2.63;0.90;;;14.10;98.20;;;;;;5070716;28;20489;-69
2021/07/06 01:30:12;;;;;;;6.47;1.53;;;14.30;97.80;;;;;;5070279;28;20280;-67
2021/07/06 01:32:44;;;;;;;4.20;0.80;;;14.20;97.80;;;;;;5073324;28;20175;-71
2021/07/06 01:35:14;;;;;;;2.53;0.80;;;14.20;97.80;;;;;;5076135;28;20176;-69
2021/07/06 01:38:08;;;;;;;2.17;1.40;;;14.20;97.90;;;;;;5078212;28;20633;-71
2021/07/06 01:40:35;;;;;;;2.00;1.10;;;14.30;97.80;;;;;;5064979;28;20270;-67
2021/07/06 01:43:03;;;;;;;2.43;1.10;;;14.40;97.90;;;;;;5072376;28;20218;-67
2021/07/06 01:45:31;;;;;;;2.60;1.23;;;14.50;97.90;;;;;;5070138;28;20173;-68
2021/07/06 01:48:02;;;;;;;6.00;1.37;;;14.80;97.90;;;;;;5074146;28;20194;-66
2021/07/06 01:50:36;;;;;;;2.47;1.47;;;14.80;97.40;;;;;;5072072;28;20254;-68
2021/07/06 01:53:09;;;;;;;4.37;1.10;;;15.10;97.40;;;;;;5072258;28;20202;-72
2021/07/06 01:55:39;;;;;;;7.57;1.63;;;15.00;96.90;;;;;;5064232;28;20212;-72
2021/07/06 01:58:09;;;;;;;3.50;1.30;;;15.00;96.70;;;;;;5071739;28;20181;-74
2021/07/06 02:00:39;;;;;;;4.20;1.30;;;15.10;96.70;;;;;;5075294;28;20656;-73
2021/07/06 02:03:07;;;;;;;3.00;1.67;;;14.90;96.40;;;;;;5073154;28;20212;-74
2021/07/06 02:05:40;;;;;;;2.27;1.23;;;15.00;96.40;;;;;;5071234;28;20547;-73
2021/07/06 02:08:12;;;;;;;6.13;1.00;;;15.10;96.60;;;;;;5104314;28;20215;-71
2021/07/06 02:10:40;;;;;;;2.87;1.07;;;15.40;96.00;;;;;;5065855;28;20185;-73
2021/07/06 02:13:24;;;;;;;2.33;1.17;;;15.30;95.90;;;;;;5064892;28;20190;-67
2021/07/06 02:15:53;;;;;;;2.33;1.20;;;15.40;95.80;;;;;;5070241;28;20191;-75
2021/07/06 02:18:22;;;;;;;1.53;1.13;;;15.50;96.10;;;;;;5084173;28;21411;-78
2021/07/06 02:20:58;;;;;;;2.83;1.10;;;15.60;95.90;;;;;;5066532;28;20646;-74
2021/07/06 02:23:33;;;;;;;3.53;1.30;;;15.60;96.20;;;;;;5059305;28;21272;-70
2021/07/06 02:26:08;;;;;;;2.20;1.23;;;15.70;95.90;;;;;;5054761;28;20183;-72
2021/07/06 02:28:36;;;;;;;4.63;1.10;;;16.00;95.60;;;;;;5034469;28;20592;-70
2021/07/06 02:31:06;;;;;;;1.80;1.17;;;15.90;95.30;;;;;;5054561;28;20180;-73
2021/07/06 02:33:35;;;;;;;3.70;1.40;;;16.00;95.60;;;;;;5042978;28;20659;-70
2021/07/06 02:36:07;;;;;;;4.43;1.17;;;16.20;95.20;;;;;;5059615;28;20182;-76
2021/07/06 02:38:38;;;;;;;2.73;1.20;;;16.30;95.10;;;;;;5057826;28;20196;-73
2021/07/06 02:41:07;;;;;;;3.47;1.20;;;16.50;94.70;;;;;;5047061;28;20183;-74
2021/07/06 02:43:34;;;;;;;9.83;1.70;;;16.40;95.40;;;;;;5040068;28;20260;-77
2021/07/06 02:46:01;;;;;;;5.33;1.40;;;16.60;94.90;;;;;;5055294;28;20267;-75
2021/07/06 02:48:29;;;;;;;5.73;1.97;;;16.80;94.60;;;;;;5056148;28;20191;-74
2021/07/06 02:50:56;;;;;;;6.13;1.53;;;17.00;94.50;;;;;;5052849;28;20694;-71
2021/07/06 02:53:24;;;;;;;6.77;1.20;;;17.00;94.20;;;;;;5053758;28;20217;-69
2021/07/06 02:55:51;;;;;;;6.67;1.93;;;17.10;94.30;;;;;;5052486;28;20188;-73
2021/07/06 02:58:18;;;;;;;4.80;1.80;;;17.00;94.20;;;;;;5061628;28;20192;-71
2021/07/06 03:00:46;;;;;;;9.47;1.87;;;16.90;94.60;;;;;;5049594;28;20643;-69
2021/07/06 03:03:15;;;;;;;3.17;1.20;;;16.90;95.00;;;;;;5056560;28;20208;-70
2021/07/06 03:05:42;;;;;;;3.23;1.20;;;17.10;94.00;;;;;;5033165;28;20171;-71
2021/07/06 03:08:10;;;;;;;6.17;1.57;;;17.00;94.60;;;;;;5062744;28;20652;-70
2021/07/06 03:10:40;;;;;;;5.30;1.60;;;17.00;94.50;;;;;;5064288;28;20171;-73
2021/07/06 03:13:09;;;;;;;6.40;1.70;;;16.70;94.30;;;;;;5058583;28;20582;-69
2021/07/06 03:15:37;;;;;;;6.50;1.50;;;16.60;95.20;;;;;;5059961;28;20188;-76
2021/07/06 03:18:06;;;;;;;4.17;1.40;;;16.80;94.60;;;;;;5057792;28;20552;-72
2021/07/06 03:20:34;;;;;;;6.00;1.50;;;16.90;94.20;;;;;;5061113;28;20222;-73
2021/07/06 03:23:02;;;;;;;4.73;1.30;;;16.90;94.80;;;;;;5055779;28;20236;-68
2021/07/06 03:25:32;;;;;;;3.57;1.23;;;17.10;94.40;;;;;;5055036;28;20352;-72
2021/07/06 03:28:00;;;;;;;5.67;1.40;;;17.50;93.40;;;;;;5056415;28;20214;-76
2021/07/06 03:30:33;;;;;;;2.33;1.23;;;17.70;93.20;;;;;;5053361;28;20172;-69
2021/07/06 03:33:03;;;;;;;9.53;1.50;;;17.80;92.50;;;;;;5054858;28;20183;-69
2021/07/06 03:35:30;;;;;;;2.37;1.10;;;18.10;92.50;;;;;;5053159;28;20188;-74
2021/07/06 03:38:01;;;;;;;10.63;1.30;;;18.40;91.30;;;;;;5054941;28;20241;-71
2021/07/06 03:40:28;;;;;;;2.73;1.33;;;18.40;91.90;;;;;;5059985;28;20172;-77
2021/07/06 03:42:56;;;;;;;2.63;1.20;;;18.50;91.90;;;;;;5054635;28;20246;-76
2021/07/06 03:45:25;;;;;;;3.90;1.10;;;18.80;91.10;;;;;;5060122;28;20187;-74
2021/07/06 03:47:53;;;;;;;4.20;1.10;;;18.80;90.20;;;;;;5055912;28;20192;-73
2021/07/06 03:50:23;;;;;;;4.43;0.90;;;18.80;89.20;;;;;;5035730;28;20683;-73
2021/07/06 03:52:53;;;;;;;2.07;1.10;;;18.70;89.90;;;;;;5043345;28;20230;-72
2021/07/06 03:55:21;;;;;;;3.50;1.20;;;18.70;90.30;;;;;;5042182;28;20169;-70
2021/07/06 03:57:49;;;;;;;2.97;1.00;;;18.70;90.10;;;;;;5051535;28;20184;-70
2021/07/06 04:00:25;;;;;;;5.60;1.37;;;18.70;89.50;;;;;;5061679;28;20262;-75
2021/07/06 04:02:52;;;;;;;3.77;1.10;;;18.50;90.20;;;;;;5051797;28;20753;-71
2021/07/06 04:05:20;;;;;;;3.67;1.10;;;18.30;90.00;;;;;;5054359;28;20184;-70
2021/07/06 04:07:47;;;;;;;2.97;1.30;;;18.00;90.80;;;;;;5055037;28;20172;-75
2021/07/06 04:10:17;;;;;;;3.73;1.33;;;17.90;90.90;;;;;;5054725;28;20184;-69
2021/07/06 04:12:45;;;;;;;2.87;0.90;;;17.80;91.30;;;;;;5054193;28;20187;-71
2021/07/06 04:15:13;;;;;;;3.50;1.47;;;17.70;90.30;;;;;;5054752;28;20178;-70
2021/07/06 04:17:41;;;;;;;3.03;0.93;;;17.70;89.40;;;;;;5054759;28;20172;-72
2021/07/06 04:20:11;;;;;;;3.53;0.90;;;17.70;90.00;;;;;;5054509;28;20223;-70
2021/07/06 04:22:39;;;;;;;1.77;0.77;;;17.80;87.90;;;;;;5069143;28;20225;-71
2021/07/06 04:25:08;;;;;;;6.43;1.10;;;17.90;88.40;;;;;;5057106;28;20171;-69
2021/07/06 04:27:38;;;;;;;1.00;0.70;;;17.80;88.30;;;;;;5074408;28;20198;-71
2021/07/06 04:30:07;;;;;;;1.80;0.77;;;17.70;88.60;;;;;;5073975;28;20205;-75
2021/07/06 04:32:35;;;;;;;2.30;0.80;;;17.90;88.60;;;;;;5074487;28;20179;-71
2021/07/06 04:35:04;;;;;;;3.27;0.80;;;17.80;88.40;;;;;;5074265;28;20242;-73
2021/07/06 04:37:32;;;;;;;2.57;1.00;;;17.70;87.70;;;;;;5074042;28;20182;-69
2021/07/06 04:40:00;;;;;;;2.57;1.00;;;17.70;89.30;;;;;;5074114;28;20251;-72
2021/07/06 04:42:27;;;;;;;2.23;1.10;;;18.10;87.90;;;;;;5058958;28;20668;-70
2021/07/06 04:44:55;;;;;;;3.63;1.00;;;18.10;86.40;;;;;;5068976;28;20179;-72
2021/07/06 04:47:22;;;;;;;2.33;0.70;;;18.30;85.20;;;;;;5070591;28;20633;-70
2021/07/06 04:49:50;;;;;;;1.57;0.80;;;18.30;85.00;;;;;;5070029;28;20182;-71
2021/07/06 04:52:18;;;;;;;1.00;0.87;;;18.30;85.00;;;;;;5073943;28;20183;-71
2021/07/06 04:54:45;;;;;;;3.23;0.97;;;18.10;84.20;;;;;;5074336;28;20175;-76
2021/07/06 04:57:13;;;;;;;1.57;1.00;;;18.40;85.00;;;;;;5073542;28;20273;-72
2021/07/06 04:59:40;;;;;;;1.47;1.00;;;18.40;86.30;;;;;;5066621;28;20203;-70
2021/07/06 05:02:09;;;;;;;3.50;1.03;;;18.70;83.70;;;;;;5053796;28;20207;-69
2021/07/06 05:04:36;;;;;;;4.10;1.10;;;18.70;84.70;;;;;;5071428;28;20180;-72
2021/07/06 05:07:04;;;;;;;2.70;1.10;;;18.80;83.90;;;;;;5073526;28;20218;-71
2021/07/06 05:09:37;;;;;;;6.93;1.20;;;18.70;83.10;;;;;;5073589;28;20198;-71
2021/07/06 05:12:05;;;;;;;2.03;1.10;;;19.10;82.50;;;;;;5073458;28;20180;-73
2021/07/06 05:14:32;;;;;;;6.50;1.37;;;19.00;83.60;;;;;;5073348;28;20175;-74
2021/07/06 05:17:02;;;;;;;7.03;1.40;;;18.80;84.90;;;;;;5073635;28;20661;-71
2021/07/06 05:19:30;;;;;;;5.90;1.33;;;18.90;84.50;;;;;;5056165;28;20195;-74
2021/07/06 05:21:57;;;;;;;2.00;1.17;;;18.30;86.10;;;;;;5073172;28;20680;-69
2021/07/06 05:24:25;;;;;;;4.17;1.30;;;18.40;86.30;;;;;;5073313;28;20233;-74
2021/07/06 05:26:52;;;;;;;6.87;2.10;;;18.50;85.90;;;;;;5073008;28;20717;-71
2021/07/06 05:29:19;;;;;;;4.77;1.23;;;18.70;86.00;;;;;;5059155;28;20196;-70
2021/07/06 05:31:47;;;;;;;2.40;1.00;;;18.80;84.60;;;;;;5059471;28;20629;-69
2021/07/06 05:34:15;;;;;;;3.27;1.10;;;18.70;83.10;;;;;;5071645;28;20187;-74
2021/07/06 05:36:43;;;;;;;2.33;1.00;;;18.90;81.70;;;;;;5060697;28;20259;-74
2021/07/06 05:39:11;;;;;;;2.60;1.40;;;19.10;81.30;;;;;;5073367;28;20541;-70
2021/07/06 05:41:38;;;;;;;5.63;1.40;;;19.10;82.20;;;;;;5075015;28;20190;-69
2021/07/06 05:44:07;;;;;;;4.43;1.30;;;19.00;83.50;;;;;;5072519;28;20272;-70
2021/07/06 05:46:35;;;;;;;6.47;1.57;;;19.50;83.40;;;;;;5086663;28;20186;-68
2021/07/06 05:49:02;;;;;;;3.43;1.30;;;19.20;82.90;;;;;;5072856;28;20240;-71
2021/07/06 05:51:30;;;;;;;9.97;1.80;;;19.30;83.10;;;;;;5078597;28;20187;-70
2021/07/06 05:53:57;;;;;;;2.67;1.43;;;18.80;84.50;;;;;;5073266;28;20202;-71
2021/07/06 05:56:24;;;;;;;4.03;1.53;;;18.30;85.90;;;;;;5078605;28;20239;-71
2021/07/06 05:58:52;;;;;;;4.73;1.30;;;18.00;87.20;;;;;;5072595;28;20221;-69
2021/07/06 06:01:19;;;;;;;2.83;1.43;;;17.90;86.40;;;;;;5066991;28;20187;-69
2021/07/06 06:03:46;;;;;;;3.53;1.30;;;17.80;87.80;;;;;;5053308;28;20226;-69
2021/07/06 06:06:15;;;;;;;3.00;1.03;;;17.70;88.70;;;;;;5074423;28;20186;-68
2021/07/06 06:08:43;;;;;;;5.07;1.63;;;17.50;86.60;;;;;;5091831;28;20213;-71
2021/07/06 06:11:12;;;;;;;2.73;1.10;;;17.50;84.70;;;;;;5088652;28;20225;-68
2021/07/06 06:13:39;;;;;;;8.07;1.60;;;17.30;87.00;;;;;;5072339;28;20187;-69
2021/07/06 06:16:07;;;;;;;5.17;1.50;;;17.00;88.60;;;;;;5072574;28;20714;-69
2021/07/06 06:18:35;;;;;;;3.87;2.47;;;16.80;89.80;;;;;;5054649;28;20236;-69
2021/07/06 06:21:02;;;;;;;6.03;1.20;;;16.60;89.80;;;;;;5073036;28;20179;-79
2021/07/06 06:23:30;;;;;;;3.23;1.27;;;16.40;90.60;;;;;;5074947;28;20249;-76
2021/07/06 06:25:57;;;;;;;7.33;1.40;;;16.30;91.30;;;;;;5072710;28;20197;-76
2021/07/06 06:28:25;;;;;;;4.40;1.23;;;16.40;91.50;;;;;;5073396;28;20198;-73
2021/07/06 06:30:54;;;;;;;2.60;1.20;;;16.50;91.80;;;;;;5072841;28;20182;-70
2021/07/06 06:33:22;;;;;;;4.97;1.87;;;16.50;92.30;;;;;;5078027;28;20182;-71
2021/07/06 06:35:49;;;;;;;5.43;1.43;;;16.20;92.50;;;;;;5061968;28;20296;-69
2021/07/06 06:38:17;;;;;;;3.27;1.33;;;15.70;93.00;;;;;;5079099;28;20192;-74
2021/07/06 06:40:44;;;;;;;3.30;1.30;;;15.60;94.70;;;;;;5067377;28;20193;-72
2021/07/06 06:43:11;;;;;;;8.03;2.00;;;15.60;95.90;;;;;;5050016;28;20214;-72
2021/07/06 06:45:39;;;;;;;3.63;2.30;;;15.40;97.00;;;;;;5080883;28;20631;-70
2021/07/06 06:48:06;;;;;;;8.77;2.17;;;15.20;97.90;;;;;;5073002;28;20556;-69
2021/07/06 06:50:35;;;;;;;7.43;2.40;;;15.10;98.70;;;;;;5070132;28;20183;-69
2021/07/06 06:53:02;;;;;;;6.03;2.07;;;15.00;98.90;;;;;;5071063;28;20187;-70
2021/07/06 06:55:30;;;;;;;7.90;1.90;;;14.90;99.50;;;;;;5072732;28;20691;-69
2021/07/06 06:57:57;;;;;;;10.53;2.17;;;14.80;99.90;;;;;;5070200;28;20191;-70
2021/07/06 07:00:25;;;;;;;8.80;2.27;;;14.70;99.90;;;;;;5069804;28;20181;-68
2021/07/06 07:02:54;;;;;;;3.53;1.60;;;14.60;99.90;;;;;;5074939;28;20693;-70
2021/07/06 07:05:22;;;;;;;5.27;1.90;;;14.50;99.90;;;;;;5075200;28;20187;-74
2021/07/06 07:07:50;;;;;;;5.27;1.87;;;14.40;99.90;;;;;;5080244;28;20688;-70
2021/07/06 07:10:19;;;;;;;6.47;2.00;;;14.30;99.90;;;;;;5071968;28;20190;-70
2021/07/06 07:12:47;;;;;;;7.50;2.57;;;14.20;99.90;;;;;;5073591;28;20202;-70
2021/07/06 07:15:15;;;;;;;9.60;2.10;;;14.20;99.90;;;;;;5074158;28;20717;-69
2021/07/06 07:17:42;;;;;;;9.33;1.93;;;14.10;99.90;;;;;;5079591;28;20206;-69
2021/07/06 07:20:11;;;;;;;5.53;1.63;;;14.00;99.90;;;;;;5074553;28;20653;-71
2021/07/06 07:22:41;;;;;;;5.70;1.60;;;14.00;99.90;;;;;;5072460;28;20676;-69
2021/07/06 07:25:10;;;;;;;4.57;2.10;;;13.90;99.90;;;;;;5070568;28;20228;-69
2021/07/06 07:27:38;;;;;;;10.00;2.77;;;13.80;99.90;;;;;;5073040;28;20233;-72
2021/07/06 07:30:07;;;;;;;7.97;2.70;;;13.80;99.90;;;;;;5074046;28;20215;-71
2021/07/06 07:32:34;;;;;;;8.97;2.63;;;13.70;99.90;;;;;;5075412;28;20194;-70
2021/07/06 07:35:01;;;;;;;9.10;2.83;;;13.60;99.90;;;;;;5077591;28;20183;-69
2021/07/06 07:37:29;;;;;;;10.40;3.00;;;13.60;99.90;;;;;;5074308;28;20550;-71
2021/07/06 07:39:56;;;;;;;7.53;3.30;;;13.50;99.90;;;;;;5074487;28;20176;-68
2021/07/06 07:42:24;;;;;;;11.80;3.07;;;13.40;99.90;;;;;;5074178;28;20243;-69
2021/07/06 07:44:51;;;;;;;8.93;3.27;;;13.40;99.90;;;;;;5074284;28;20198;-70
2021/07/06 07:47:18;;;;;;;7.13;3.60;;;13.30;99.90;;;;;;5080667;28;20175;-68
2021/07/06 07:49:46;;;;;;;9.47;3.77;;;13.30;99.90;;;;;;5073564;28;20317;-68
2021/07/06 07:52:16;;;;;;;9.10;3.87;;;13.30;99.90;;;;;;5073362;28;20179;-70
2021/07/06 07:54:44;;;;;;;8.90;2.97;;;13.20;99.90;;;;;;5077462;28;20175;-69
2021/07/06 07:57:11;;;;;;;9.23;3.90;;;13.10;99.90;;;;;;5074393;28;20270;-68
2021/07/06 07:59:39;;;;;;;14.53;3.83;;;13.10;99.90;;;;;;5067862;28;20194;-69
2021/07/06 08:02:06;;;;;;;14.00;6.33;;;13.00;99.90;;;;;;5079790;28;20211;-72
2021/07/06 08:04:34;;;;;;;33.70;18.60;;;13.00;99.90;;;;;;5074365;28;20614;-69
2021/07/06 08:07:01;;;;;;;43.67;26.13;;;12.90;99.90;;;;;;5068973;28;20270;-73
2021/07/06 08:09:28;;;;;;;37.53;19.63;;;12.90;99.90;;;;;;5071530;28;20178;-69
2021/07/06 08:11:56;;;;;;;31.90;17.93;;;12.80;99.90;;;;;;5074793;28;20187;-71
2021/07/06 08:14:23;;;;;;;24.40;14.23;;;12.80;99.90;;;;;;5073462;28;20179;-68
2021/07/06 08:16:54;;;;;;;21.00;10.53;;;12.80;99.90;;;;;;5081102;28;20171;-68
2021/07/06 08:19:21;;;;;;;18.07;9.97;;;12.70;99.90;;;;;;5077835;28;20175;-69
2021/07/06 08:21:49;;;;;;;17.37;8.87;;;12.70;99.90;;;;;;5059680;28;20222;-71
2021/07/06 08:24:18;;;;;;;15.93;8.53;;;12.60;99.90;;;;;;5074847;28;20637;-74
2021/07/06 08:26:46;;;;;;;23.87;9.10;;;12.60;99.90;;;;;;5070899;28;20179;-70
2021/07/06 08:29:14;;;;;;;15.13;8.20;;;12.60;99.90;;;;;;5077783;28;20252;-69
2021/07/06 08:31:41;;;;;;;17.33;9.00;;;12.50;99.90;;;;;;5084370;28;20602;-75
2021/07/06 08:34:08;;;;;;;14.43;8.60;;;12.50;99.90;;;;;;5061182;28;20209;-68
2021/07/06 08:36:36;;;;;;;23.47;8.97;;;12.50;99.90;;;;;;5079434;28;20187;-69
2021/07/06 08:39:04;;;;;;;16.73;7.23;;;12.40;99.90;;;;;;5074403;28;20176;-69
2021/07/06 08:41:33;;;;;;;14.57;7.47;;;12.40;99.90;;;;;;5074135;28;20270;-69
2021/07/06 08:44:00;;;;;;;14.67;7.13;;;12.40;99.90;;;;;;5071880;28;20677;-72
2021/07/06 08:46:30;;;;;;;16.33;8.67;;;12.40;99.90;;;;;;5078852;28;20701;-73
2021/07/06 08:48:58;;;;;;;17.30;7.67;;;12.30;99.90;;;;;;5073967;28;20692;-68
2021/07/06 08:51:26;;;;;;;19.23;7.70;;;12.30;99.90;;;;;;5078471;28;20175;-69
2021/07/06 08:53:53;;;;;;;11.80;6.70;;;12.30;99.90;;;;;;5081880;28;20265;-69
2021/07/06 08:56:20;;;;;;;17.10;6.77;;;12.30;99.90;;;;;;5088684;28;20179;-70
2021/07/06 08:58:52;;;;;;;12.43;6.67;;;12.30;99.90;;;;;;5073527;28;20567;-69
2021/07/06 09:01:28;;;;;;;16.63;6.90;;;12.20;99.90;;;;;;5073340;28;20213;-69
2021/07/06 09:03:57;;;;;;;12.60;6.57;;;12.20;99.90;;;;;;5072707;28;20229;-71
2021/07/06 09:06:26;;;;;;;11.03;5.30;;;12.20;99.90;;;;;;5073256;28;20257;-71
2021/07/06 09:09:20;;;;;;;15.33;6.53;;;12.20;99.90;;;;;;5074220;28;20180;-70
2021/07/06 09:11:52;;;;;;;20.40;7.10;;;12.10;99.90;;;;;;5073097;28;20203;-69
2021/07/06 09:14:23;;;;;;;12.93;6.80;;;12.10;99.90;;;;;;5069235;28;20175;-69
2021/07/06 09:16:50;;;;;;;20.13;6.43;;;12.10;99.90;;;;;;5073589;28;20186;-69
2021/07/06 09:19:25;;;;;;;16.60;7.17;;;12.10;99.90;;;;;;5073445;28;20179;-69
2021/07/06 09:22:18;;;;;;;18.67;6.70;;;12.10;99.90;;;;;;5065108;28;20284;-73
2021/07/06 09:24:57;;;;;;;11.87;5.97;;;12.10;99.90;;;;;;5081413;28;20288;-67
2021/07/06 09:27:28;;;;;;;12.87;5.77;;;12.00;99.90;;;;;;5073135;28;20246;-69
2021/07/06 09:30:16;;;;;;;12.40;5.20;;;12.00;99.90;;;;;;5073308;28;20182;-68
2021/07/06 09:32:51;;;;;;;11.77;5.17;;;11.90;99.90;;;;;;5069322;28;20242;-68
2021/07/06 09:35:28;;;;;;;15.47;5.10;;;11.90;99.90;;;;;;5074656;28;20223;-67
2021/07/06 09:38:05;;;;;;;15.37;4.80;;;11.90;99.90;;;;;;5072866;28;20186;-69
2021/07/06 09:40:40;;;;;;;14.90;5.10;;;11.90;99.90;;;;;;5073137;28;20634;-68
2021/07/06 09:43:20;;;;;;;16.27;4.90;;;11.90;99.90;;;;;;5059916;28;20206;-68
2021/07/06 09:46:11;;;;;;;13.60;5.30;;;11.80;99.90;;;;;;5071611;28;20698;-68
2021/07/06 09:48:47;;;;;;;16.03;5.40;;;11.80;99.90;;;;;;5083806;28;20171;-71
2021/07/06 09:51:16;;;;;;;12.60;4.50;;;11.80;99.90;;;;;;5079461;28;20265;-71
2021/07/06 09:53:58;;;;;;;11.87;4.67;;;11.70;99.90;;;;;;5084282;28;20173;-67
2021/07/06 09:56:28;;;;;;;8.90;4.87;;;11.70;99.90;;;;;;5078409;28;20182;-75
2021/07/06 09:59:06;;;;;;;12.13;5.17;;;11.70;99.90;;;;;;5071274;28;20182;-69
2021/07/06 10:01:34;;;;;;;9.40;4.60;;;11.60;99.90;;;;;;5086027;28;20178;-68
2021/07/06 10:04:01;;;;;;;13.43;5.27;;;11.60;99.90;;;;;;5071476;28;20647;-70
2021/07/06 10:06:30;;;;;;;13.43;5.03;;;11.60;99.90;;;;;;5064493;28;20167;-69
2021/07/06 10:08:58;;;;;;;13.47;5.90;;;11.50;99.90;;;;;;5076478;28;20187;-70
2021/07/06 10:11:26;;;;;;;10.27;5.77;;;11.50;99.90;;;;;;5072665;28;20179;-67
2021/07/06 10:13:56;;;;;;;13.30;5.73;;;11.50;99.90;;;;;;5074476;28;20199;-71
2021/07/06 10:16:23;;;;;;;12.53;5.43;;;11.40;99.90;;;;;;5071025;28;20190;-69
2021/07/06 10:18:51;;;;;;;15.70;6.03;;;11.40;99.90;;;;;;5071455;28;20178;-69
2021/07/06 10:21:18;;;;;;;11.20;5.70;;;11.40;99.90;;;;;;5072021;28;20182;-69
2021/07/06 10:23:52;;;;;;;10.67;5.70;;;11.50;99.90;;;;;;5079331;28;20354;-68
2021/07/06 10:26:27;;;;;;;9.70;5.60;;;11.40;99.90;;;;;;5071107;28;20171;-68
2021/07/06 10:28:55;;;;;;;10.07;5.40;;;11.30;99.90;;;;;;5074728;28;20182;-69
2021/07/06 10:31:24;;;;;;;13.93;6.17;;;11.30;99.90;;;;;;5071010;28;20179;-67
2021/07/06 10:33:54;;;;;;;20.30;6.47;;;11.30;99.90;;;;;;5072005;28;20190;-74
2021/07/06 10:36:45;;;;;;;18.63;7.10;;;11.20;99.90;;;;;;5070644;28;20649;-68
2021/07/06 10:39:13;;;;;;;16.23;7.33;;;11.20;99.90;;;;;;5081435;28;20648;-75
2021/07/06 10:41:40;;;;;;;16.77;7.80;;;11.10;99.90;;;;;;5075316;28;20239;-72
2021/07/06 10:44:08;;;;;;;20.47;7.97;;;11.10;99.90;;;;;;5071446;28;20701;-71
2021/07/06 10:46:39;;;;;;;15.10;7.93;;;11.00;99.90;;;;;;5072469;28;20237;-68
2021/07/06 10:49:14;;;;;;;17.67;7.30;;;11.00;99.90;;;;;;5079275;28;20582;-72
2021/07/06 10:51:42;;;;;;;14.63;7.13;;;10.90;99.90;;;;;;5071987;28;20272;-71
2021/07/06 10:54:23;;;;;;;15.73;7.47;;;10.90;99.90;;;;;;5059700;28;20514;-69
2021/07/06 10:57:14;;;;;;;17.67;8.10;;;10.90;99.90;;;;;;5072454;28;20175;-69
2021/07/06 10:59:42;;;;;;;16.80;7.80;;;10.90;99.90;;;;;;5081403;28;20625;-68
2021/07/06 11:02:13;;;;;;;15.37;7.50;;;10.80;99.90;;;;;;5075669;28;20198;-68
2021/07/06 11:04:46;;;;;;;15.77;7.93;;;10.80;99.90;;;;;;5072557;28;20191;-71
2021/07/06 11:07:30;;;;;;;15.63;7.70;;;10.80;99.90;;;;;;5077407;28;20183;-69
2021/07/06 11:10:03;;;;;;;15.67;7.77;;;10.70;99.90;;;;;;5080400;28;20179;-71
2021/07/06 11:12:40;;;;;;;18.87;8.53;;;10.80;99.90;;;;;;5075152;28;20197;-69
2021/07/06 11:15:13;;;;;;;17.03;8.80;;;10.70;99.90;;;;;;5072759;28;20186;-69
2021/07/06 11:17:45;;;;;;;17.77;9.17;;;10.70;99.90;;;;;;5082918;28;20219;-69
2021/07/06 11:20:15;;;;;;;16.73;7.63;;;10.70;99.90;;;;;;5079846;28;20179;-78
2021/07/06 11:22:51;;;;;;;14.00;7.87;;;10.70;99.90;;;;;;5076199;28;20581;-69
2021/07/06 11:25:25;;;;;;;19.93;8.87;;;10.70;99.90;;;;;;5064390;28;20240;-74
2021/07/06 11:28:07;;;;;;;17.57;9.53;;;10.60;99.90;;;;;;5077540;28;20594;-69
2021/07/06 11:30:50;;;;;;;15.77;8.33;;;10.60;99.90;;;;;;5072717;28;20190;-67
2021/07/06 11:33:41;;;;;;;14.83;8.77;;;10.50;99.90;;;;;;5061174;28;20583;-71
2021/07/06 11:36:25;;;;;;;17.10;9.37;;;10.50;99.90;;;;;;5073034;28;20274;-71
2021/07/06 11:38:59;;;;;;;19.30;10.33;;;10.40;99.90;;;;;;5068647;28;20590;-69
2021/07/06 11:41:26;;;;;;;22.17;10.83;;;10.40;99.90;;;;;;5081382;28;20227;-70
2021/07/06 11:43:55;;;;;;;17.93;10.93;;;10.40;99.90;;;;;;5080691;28;20222;-74
2021/07/06 11:46:22;;;;;;;25.35;12.25;;;10.40;99.90;;;;;;5080268;28;20453;-76
2021/07/06 11:48:54;;;;;;;18.83;11.27;;;10.30;99.90;;;;;;5082053;28;20225;-70
2021/07/06 11:51:25;;;;;;;24.77;12.07;;;10.30;99.90;;;;;;5062252;28;20258;-70
2021/07/06 11:54:00;;;;;;;24.17;11.83;;;10.30;99.90;;;;;;5077535;28;20175;-68
2021/07/06 11:56:30;;;;;;;26.40;11.60;;;10.30;99.90;;;;;;5086475;28;20225;-70
2021/07/06 11:58:58;;;;;;;20.23;11.27;;;10.20;99.90;;;;;;5075686;28;20539;-68
2021/07/06 12:01:27;;;;;;;21.70;10.63;;;10.20;99.90;;;;;;5084197;28;20260;-68
2021/07/06 12:03:54;;;;;;;23.70;10.00;;;10.20;99.90;;;;;;5076614;28;20267;-68
2021/07/06 12:06:22;;;;;;;16.80;9.37;;;10.20;99.90;;;;;;5080462;28;20201;-69
2021/07/06 12:08:55;;;;;;;17.20;8.20;;;10.10;99.90;;;;;;5081514;28;20197;-68
2021/07/06 12:11:26;;;;;;;15.97;8.80;;;10.20;99.90;;;;;;5079247;28;20178;-74
2021/07/06 12:14:01;;;;;;;15.20;8.37;;;10.20;99.90;;;;;;5065640;28;20214;-68
2021/07/06 12:16:37;;;;;;;15.77;8.00;;;10.20;99.90;;;;;;5071907;28;20186;-69
2021/07/06 12:19:10;;;;;;;21.67;8.70;;;10.10;99.90;;;;;;5078371;28;20196;-68
2021/07/06 12:21:39;;;;;;;15.10;7.40;;;10.10;99.90;;;;;;5076555;28;20296;-71
2021/07/06 12:24:11;;;;;;;22.73;7.83;;;10.00;99.90;;;;;;5074260;28;20215;-69
2021/07/06 12:26:47;;;;;;;21.03;8.07;;;9.90;99.90;;;;;;5068010;28;20209;-70
2021/07/06 12:29:25;;;;;;;16.47;8.30;;;9.90;99.90;;;;;;5082188;28;20269;-69
2021/07/06 12:31:52;;;;;;;19.97;8.33;;;9.90;99.90;;;;;;5078404;28;20192;-72
2021/07/06 12:34:19;;;;;;;20.27;8.50;;;9.80;99.90;;;;;;5060320;28;20189;-68
2021/07/06 12:36:58;;;;;;;15.60;7.47;;;9.70;99.90;;;;;;5074340;28;20273;-71
2021/07/06 12:39:29;;;;;;;19.23;8.00;;;9.60;99.90;;;;;;5063691;28;20177;-71
2021/07/06 12:42:23;;;;;;;20.20;7.67;;;9.60;99.90;;;;;;5079769;28;20197;-72
2021/07/06 12:45:01;;;;;;;13.63;6.73;;;9.60;99.90;;;;;;5057759;28;20196;-69
2021/07/06 12:47:31;;;;;;;12.10;5.73;;;9.60;99.90;;;;;;5078101;28;20194;-72
2021/07/06 12:50:03;;;;;;;11.17;5.23;;;9.50;99.90;;;;;;5074371;28;20188;-69
2021/07/06 12:52:44;;;;;;;10.33;5.23;;;9.50;99.90;;;;;;5074607;28;20198;-70
2021/07/06 12:55:17;;;;;;;8.57;5.10;;;9.50;99.90;;;;;;5073384;28;20194;-68
2021/07/06 12:57:50;;;;;;;16.00;6.17;;;9.50;99.90;;;;;;5074008;28;20186;-68